Time;durP1;ratioP1;P1;durP2;ratioP2;P2;SDS_P1;SDS_P2;PMS_P1;PMS_P2;Temp;Humidity;BMP_temperature;BMP_pressure;BME280_temperature;BME280_humidity;BME280_pressure;Samples;Min_cycle;Max_cycle;Signal;HPM_P1;HPM_P2
2022/09/03 00:02:35;;;;;;;2.05;1.25;;;16.10;96.30;;;;;;5090659;28;20224;-52
2022/09/03 00:05:08;;;;;;;2.05;1.50;;;16.00;96.30;;;;;;5090536;28;20224;-52
2022/09/03 00:07:42;;;;;;;3.03;1.63;;;16.00;96.30;;;;;;5091310;28;20212;-52
2022/09/03 00:10:16;;;;;;;1.48;1.38;;;16.00;96.40;;;;;;5090605;28;20216;-52
2022/09/03 00:12:45;;;;;;;2.10;1.58;;;15.90;96.40;;;;;;5089619;28;20204;-52
2022/09/03 00:15:17;;;;;;;2.38;1.63;;;15.90;96.40;;;;;;5089500;28;20231;-52
2022/09/03 00:17:50;;;;;;;1.40;1.30;;;15.90;96.40;;;;;;5090302;28;20676;-52
2022/09/03 00:20:22;;;;;;;5.28;1.65;;;15.90;96.50;;;;;;5090581;28;20197;-52
2022/09/03 00:22:53;;;;;;;2.88;1.52;;;15.90;96.70;;;;;;5094016;28;20225;-52
2022/09/03 00:25:25;;;;;;;2.05;1.50;;;15.80;96.60;;;;;;5095557;28;20228;-51
2022/09/03 00:27:56;;;;;;;2.25;1.48;;;15.80;96.90;;;;;;5078645;28;20234;-52
2022/09/03 00:30:26;;;;;;;2.50;1.35;;;15.70;96.80;;;;;;5104042;28;20208;-51
2022/09/03 00:32:58;;;;;;;1.52;1.42;;;15.70;96.90;;;;;;5086758;28;20212;-52
2022/09/03 00:35:31;;;;;;;1.95;1.70;;;15.70;97.10;;;;;;5110323;28;20219;-52
2022/09/03 00:38:00;;;;;;;1.90;1.70;;;15.60;97.30;;;;;;5110792;28;20207;-52
2022/09/03 00:40:47;;;;;;;3.90;1.50;;;15.60;97.30;;;;;;5110233;28;20196;-51
2022/09/03 00:43:31;;;;;;;1.70;1.60;;;15.50;97.50;;;;;;5107925;28;20223;-52
2022/09/03 00:46:16;;;;;;;4.85;1.73;;;15.40;97.70;;;;;;5109991;28;20245;-52
2022/09/03 00:48:55;;;;;;;2.20;1.70;;;15.30;97.90;;;;;;5109776;28;20235;-52
2022/09/03 00:51:31;;;;;;;1.65;1.50;;;15.30;98.10;;;;;;5110326;28;20211;-52
2022/09/03 00:54:06;;;;;;;1.88;1.70;;;15.20;98.20;;;;;;5110548;28;20211;-52
2022/09/03 00:56:42;;;;;;;1.48;1.35;;;15.20;98.40;;;;;;5110149;28;20227;-52
2022/09/03 00:59:30;;;;;;;4.10;1.70;;;15.10;98.40;;;;;;5098499;28;20195;-51
2022/09/03 01:02:11;;;;;;;1.80;1.70;;;15.10;98.50;;;;;;5110632;28;20253;-52
2022/09/03 01:04:50;;;;;;;2.07;1.63;;;15.10;98.60;;;;;;5109797;28;20207;-52
2022/09/03 01:07:31;;;;;;;2.40;1.63;;;15.10;98.60;;;;;;5109639;28;20664;-52
2022/09/03 01:10:07;;;;;;;2.63;1.50;;;15.00;98.80;;;;;;5110311;28;20272;-52
2022/09/03 01:12:45;;;;;;;1.98;1.63;;;15.00;98.60;;;;;;5110070;28;20676;-52
2022/09/03 01:15:20;;;;;;;3.43;1.80;;;15.00;98.70;;;;;;5109843;28;20231;-52
2022/09/03 01:18:02;;;;;;;1.47;1.37;;;14.90;98.90;;;;;;5109808;28;20747;-52
2022/09/03 01:20:42;;;;;;;2.00;1.80;;;14.90;99.10;;;;;;5110347;28;20211;-52
2022/09/03 01:23:40;;;;;;;1.73;1.63;;;14.90;98.80;;;;;;5110290;28;20283;-51
2022/09/03 01:26:29;;;;;;;4.37;1.90;;;14.90;98.90;;;;;;5108827;28;20272;-52
2022/09/03 01:29:10;;;;;;;2.03;1.60;;;14.90;99.00;;;;;;5097814;28;20204;-52
2022/09/03 01:31:49;;;;;;;2.60;1.40;;;14.90;98.80;;;;;;5069702;28;20205;-51
2022/09/03 01:34:30;;;;;;;3.13;1.60;;;15.00;98.90;;;;;;5085398;28;20891;-52
2022/09/03 01:37:09;;;;;;;1.87;1.70;;;14.90;98.90;;;;;;5089877;28;20246;-52
2022/09/03 01:39:48;;;;;;;1.63;1.53;;;14.90;99.00;;;;;;5089417;28;20212;-52
2022/09/03 01:42:25;;;;;;;2.63;1.50;;;14.90;99.00;;;;;;5089493;28;20673;-52
2022/09/03 01:45:20;;;;;;;1.43;1.33;;;14.90;99.10;;;;;;5088592;28;20232;-52
2022/09/03 01:48:15;;;;;;;3.17;1.80;;;14.90;99.10;;;;;;5089728;28;20261;-52
2022/09/03 01:50:49;;;;;;;2.13;1.60;;;14.80;99.30;;;;;;5089310;28;20211;-52
2022/09/03 01:53:34;;;;;;;1.87;1.40;;;14.80;99.30;;;;;;5089684;28;20205;-52
2022/09/03 01:56:17;;;;;;;1.80;1.70;;;14.80;99.60;;;;;;5088186;28;20285;-52
2022/09/03 01:58:49;;;;;;;1.80;1.70;;;14.70;99.50;;;;;;5088773;28;20212;-52
2022/09/03 02:01:24;;;;;;;1.90;1.57;;;14.50;99.70;;;;;;5089206;28;20239;-52
2022/09/03 02:03:58;;;;;;;4.83;2.17;;;14.30;99.90;;;;;;5089040;28;20232;-52
2022/09/03 02:06:30;;;;;;;2.53;2.10;;;14.30;99.90;;;;;;5089149;28;20251;-52
2022/09/03 02:08:58;;;;;;;2.93;1.70;;;14.30;99.90;;;;;;5088991;28;20246;-52
2022/09/03 02:11:26;;;;;;;2.57;1.93;;;14.20;99.90;;;;;;5089071;28;20200;-52
2022/09/03 02:13:58;;;;;;;2.33;1.93;;;14.30;99.90;;;;;;5088706;28;20641;-52
2022/09/03 02:16:32;;;;;;;3.67;1.60;;;14.30;99.90;;;;;;5088972;28;20728;-52
2022/09/03 02:19:03;;;;;;;1.77;1.57;;;14.20;99.90;;;;;;5089153;28;20208;-52
2022/09/03 02:21:35;;;;;;;2.87;1.80;;;14.20;99.90;;;;;;5089062;28;20205;-52
2022/09/03 02:24:04;;;;;;;1.80;1.70;;;14.20;99.90;;;;;;5089238;28;20228;-52
2022/09/03 02:26:32;;;;;;;2.27;1.93;;;14.10;99.90;;;;;;5087921;28;20236;-52
2022/09/03 02:29:03;;;;;;;5.17;1.93;;;14.10;99.90;;;;;;5089347;28;20238;-52
2022/09/03 02:31:32;;;;;;;2.03;1.77;;;14.00;99.90;;;;;;5089088;28;20212;-52
2022/09/03 02:34:00;;;;;;;2.70;1.60;;;14.00;99.90;;;;;;5087877;28;20661;-52
2022/09/03 02:36:33;;;;;;;4.30;2.17;;;13.90;99.90;;;;;;5088844;28;20228;-52
2022/09/03 02:39:02;;;;;;;3.37;1.90;;;13.90;99.90;;;;;;5091547;28;20261;-52
2022/09/03 02:41:30;;;;;;;2.07;1.87;;;13.80;99.90;;;;;;5092228;28;20212;-52
2022/09/03 02:44:03;;;;;;;3.00;1.77;;;13.70;99.90;;;;;;5092240;28;20254;-52
2022/09/03 02:46:39;;;;;;;1.90;1.80;;;13.60;99.90;;;;;;5093097;28;20224;-52
2022/09/03 02:49:08;;;;;;;3.80;1.93;;;13.60;99.90;;;;;;5092675;28;20245;-51
2022/09/03 02:51:38;;;;;;;1.90;1.80;;;13.60;99.90;;;;;;5092106;28;21152;-52
2022/09/03 02:54:08;;;;;;;5.20;2.00;;;13.50;99.90;;;;;;5092982;28;20570;-52
2022/09/03 02:56:36;;;;;;;3.33;1.93;;;13.60;99.90;;;;;;5092609;28;20290;-51
2022/09/03 02:59:05;;;;;;;2.13;1.67;;;13.50;99.90;;;;;;5093836;28;20213;-52
2022/09/03 03:01:35;;;;;;;4.00;2.07;;;13.40;99.90;;;;;;5093991;28;20628;-52
2022/09/03 03:04:04;;;;;;;2.37;1.93;;;13.40;99.90;;;;;;5090936;28;20238;-51
2022/09/03 03:06:32;;;;;;;2.57;2.20;;;13.30;99.90;;;;;;5079497;28;20249;-51
2022/09/03 03:09:02;;;;;;;3.00;1.90;;;13.20;99.90;;;;;;5092700;28;20572;-51
2022/09/03 03:11:30;;;;;;;2.67;1.90;;;13.20;99.90;;;;;;5078162;28;20577;-52
2022/09/03 03:13:58;;;;;;;2.10;1.90;;;13.20;99.90;;;;;;5092217;28;20261;-51
2022/09/03 03:16:26;;;;;;;4.03;2.53;;;13.20;99.90;;;;;;5091823;28;20297;-52
2022/09/03 03:18:57;;;;;;;2.77;1.90;;;13.20;99.90;;;;;;5092424;28;20218;-51
2022/09/03 03:21:25;;;;;;;1.87;1.70;;;13.10;99.90;;;;;;5091429;28;20261;-51
2022/09/03 03:23:53;;;;;;;2.03;1.83;;;13.00;99.90;;;;;;5092324;28;20216;-52
2022/09/03 03:26:23;;;;;;;2.30;2.10;;;13.00;99.90;;;;;;5091628;28;20259;-52
2022/09/03 03:28:56;;;;;;;3.33;2.10;;;13.00;99.90;;;;;;5091485;28;20280;-51
2022/09/03 03:31:25;;;;;;;2.93;2.10;;;12.90;99.90;;;;;;5091003;28;20205;-52
2022/09/03 03:33:55;;;;;;;3.23;2.23;;;12.90;99.90;;;;;;5091647;28;20238;-52
2022/09/03 03:36:29;;;;;;;2.23;2.00;;;12.90;99.90;;;;;;5091882;28;20232;-53
2022/09/03 03:38:59;;;;;;;2.67;2.03;;;12.90;99.90;;;;;;5091469;28;20208;-53
2022/09/03 03:41:30;;;;;;;3.13;1.97;;;12.90;99.90;;;;;;5091340;28;20289;-52
2022/09/03 03:44:00;;;;;;;6.17;2.30;;;12.90;99.90;;;;;;5091787;28;20635;-52
2022/09/03 03:46:31;;;;;;;2.03;1.80;;;12.80;99.90;;;;;;5091341;28;20228;-52
2022/09/03 03:48:59;;;;;;;2.67;1.90;;;12.80;99.90;;;;;;5091117;28;20660;-52
2022/09/03 03:51:31;;;;;;;3.27;1.77;;;12.80;99.90;;;;;;5090575;28;20212;-52
2022/09/03 03:53:59;;;;;;;2.17;1.83;;;12.80;99.90;;;;;;5091147;28;20200;-52
2022/09/03 03:56:32;;;;;;;2.47;2.10;;;12.80;99.90;;;;;;5091219;28;20241;-52
2022/09/03 03:59:00;;;;;;;2.07;1.87;;;12.70;99.90;;;;;;5091254;28;20729;-52
2022/09/03 04:01:29;;;;;;;1.90;1.80;;;12.70;99.90;;;;;;5090992;28;20261;-52
2022/09/03 04:03:58;;;;;;;2.00;1.80;;;12.70;99.90;;;;;;5091344;28;20261;-52
2022/09/03 04:06:27;;;;;;;2.33;1.77;;;12.70;99.90;;;;;;5076894;28;20306;-52
2022/09/03 04:08:57;;;;;;;2.47;2.00;;;12.80;99.90;;;;;;5091018;28;20211;-52
2022/09/03 04:11:25;;;;;;;4.27;1.90;;;12.70;99.90;;;;;;5090979;28;20334;-52
2022/09/03 04:13:54;;;;;;;1.80;1.70;;;12.70;99.90;;;;;;5090687;28;20265;-51
2022/09/03 04:16:24;;;;;;;2.40;2.20;;;12.70;99.90;;;;;;5090851;28;20265;-52
2022/09/03 04:18:53;;;;;;;2.47;1.83;;;12.60;99.90;;;;;;5090464;28;20212;-52
2022/09/03 04:21:23;;;;;;;1.80;1.70;;;12.60;99.90;;;;;;5090701;28;20230;-52
2022/09/03 04:23:53;;;;;;;2.03;1.90;;;12.60;99.90;;;;;;5090740;28;20697;-52
2022/09/03 04:26:25;;;;;;;2.50;2.30;;;12.60;99.90;;;;;;5089138;28;20594;-51
2022/09/03 04:28:53;;;;;;;4.30;1.77;;;12.60;99.90;;;;;;5090571;28;20204;-52
2022/09/03 04:31:22;;;;;;;3.20;1.93;;;12.60;99.90;;;;;;5090121;28;20212;-51
2022/09/03 04:33:51;;;;;;;2.27;1.90;;;12.60;99.90;;;;;;5090569;28;20253;-52
2022/09/03 04:36:21;;;;;;;2.20;2.00;;;12.60;99.90;;;;;;5090670;28;20258;-51
2022/09/03 04:38:50;;;;;;;2.40;2.20;;;12.60;99.90;;;;;;5090229;28;20234;-52
2022/09/03 04:41:23;;;;;;;2.97;2.00;;;12.50;99.90;;;;;;5090313;28;20207;-51
2022/09/03 04:43:52;;;;;;;2.30;2.10;;;12.50;99.90;;;;;;5076110;28;20216;-51
2022/09/03 04:46:24;;;;;;;4.73;2.10;;;12.50;99.90;;;;;;5090537;28;20232;-52
2022/09/03 04:48:55;;;;;;;1.80;1.70;;;12.50;99.90;;;;;;5089661;28;20206;-52
2022/09/03 04:51:26;;;;;;;2.83;2.00;;;12.40;99.90;;;;;;5090492;28;20212;-52
2022/09/03 04:53:56;;;;;;;6.07;2.37;;;12.40;99.90;;;;;;5090410;28;20208;-52
2022/09/03 04:56:27;;;;;;;6.10;2.40;;;12.40;99.90;;;;;;5089233;28;20220;-53
2022/09/03 04:58:57;;;;;;;3.43;2.17;;;12.40;99.90;;;;;;5090564;28;20750;-53
2022/09/03 05:01:27;;;;;;;3.43;2.20;;;12.40;99.90;;;;;;5090658;28;20208;-52
2022/09/03 05:03:56;;;;;;;3.50;2.30;;;12.50;99.90;;;;;;5090306;28;20254;-51
2022/09/03 05:06:25;;;;;;;2.73;2.17;;;12.50;99.90;;;;;;5075301;28;20221;-52
2022/09/03 05:08:54;;;;;;;3.17;2.10;;;12.50;99.90;;;;;;5089518;28;20200;-52
2022/09/03 05:11:23;;;;;;;2.60;2.40;;;12.50;99.90;;;;;;5070736;28;20201;-53
2022/09/03 05:13:55;;;;;;;3.90;2.40;;;12.60;99.90;;;;;;5073922;28;20209;-51
2022/09/03 05:16:24;;;;;;;3.10;2.30;;;12.60;99.90;;;;;;5073344;28;20281;-51
2022/09/03 05:18:54;;;;;;;2.47;2.27;;;12.70;99.90;;;;;;5073056;28;20201;-52
2022/09/03 05:21:23;;;;;;;2.77;2.50;;;12.80;99.90;;;;;;5071056;28;20263;-52
2022/09/03 05:23:52;;;;;;;4.17;2.57;;;13.00;99.90;;;;;;5070492;28;20905;-52
2022/09/03 05:26:22;;;;;;;3.20;2.73;;;13.30;99.90;;;;;;5080165;28;20819;-52
2022/09/03 05:28:55;;;;;;;3.80;2.33;;;13.70;99.90;;;;;;5089143;28;20204;-52
2022/09/03 05:31:26;;;;;;;4.07;2.27;;;13.60;99.90;;;;;;5085186;28;20208;-51
2022/09/03 05:33:57;;;;;;;2.30;2.10;;;13.50;99.90;;;;;;5089389;28;20204;-51
2022/09/03 05:36:27;;;;;;;3.27;2.30;;;13.50;99.90;;;;;;5087108;28;20212;-51
2022/09/03 05:38:56;;;;;;;2.87;2.10;;;13.40;99.90;;;;;;5089277;28;20209;-52
2022/09/03 05:41:26;;;;;;;6.23;2.30;;;13.40;99.90;;;;;;5080327;28;20239;-52
2022/09/03 05:43:57;;;;;;;2.30;2.10;;;13.60;99.90;;;;;;5089192;28;20208;-52
2022/09/03 05:46:30;;;;;;;4.33;2.20;;;13.60;99.90;;;;;;5088489;28;20224;-51
2022/09/03 05:49:00;;;;;;;3.40;2.20;;;13.50;99.90;;;;;;5089127;28;20211;-52
2022/09/03 05:51:29;;;;;;;4.43;2.00;;;13.60;99.90;;;;;;5088645;28;20250;-52
2022/09/03 05:53:58;;;;;;;4.40;2.00;;;13.70;99.90;;;;;;5088726;28;20216;-52
2022/09/03 05:56:28;;;;;;;2.37;2.13;;;13.70;99.90;;;;;;5088622;28;20633;-51
2022/09/03 05:59:00;;;;;;;3.57;2.23;;;13.70;99.90;;;;;;5088348;28;20200;-52
2022/09/03 06:01:31;;;;;;;2.53;2.00;;;13.70;99.90;;;;;;5088700;28;20247;-51
2022/09/03 06:04:00;;;;;;;2.30;2.10;;;13.70;99.90;;;;;;5088764;28;20204;-52
2022/09/03 06:06:30;;;;;;;2.10;1.90;;;13.80;99.90;;;;;;5087273;28;20727;-52
2022/09/03 06:09:01;;;;;;;2.90;1.90;;;13.90;99.90;;;;;;5087795;28;20281;-52
2022/09/03 06:11:31;;;;;;;2.57;2.10;;;14.00;99.90;;;;;;5081772;28;20205;-52
2022/09/03 06:14:03;;;;;;;2.77;2.20;;;14.00;99.90;;;;;;5086789;28;20308;-53
2022/09/03 06:16:33;;;;;;;2.43;2.10;;;14.00;99.90;;;;;;5083716;28;20266;-52
2022/09/03 06:19:01;;;;;;;3.03;2.13;;;14.30;99.90;;;;;;5090879;28;20300;-52
2022/09/03 06:21:29;;;;;;;3.33;1.90;;;14.40;99.90;;;;;;5091780;28;20563;-52
2022/09/03 06:23:58;;;;;;;2.23;1.90;;;14.50;99.90;;;;;;5079855;28;20229;-52
2022/09/03 06:26:28;;;;;;;2.80;2.00;;;14.60;99.90;;;;;;5091955;28;20228;-52
2022/09/03 06:28:57;;;;;;;2.30;2.10;;;14.80;99.90;;;;;;5092673;28;20615;-52
2022/09/03 06:31:26;;;;;;;2.35;2.05;;;15.40;99.90;;;;;;5091749;28;20282;-52
2022/09/03 06:33:55;;;;;;;2.92;2.15;;;16.10;99.90;;;;;;5091747;28;20552;-53
2022/09/03 06:36:29;;;;;;;2.30;2.00;;;16.80;99.90;;;;;;5091885;28;20243;-51
2022/09/03 06:38:57;;;;;;;2.38;1.73;;;17.40;99.90;;;;;;5091956;28;20222;-53
2022/09/03 06:41:30;;;;;;;4.07;1.88;;;17.80;99.90;;;;;;5091285;28;20204;-53
2022/09/03 06:44:01;;;;;;;3.95;2.00;;;18.30;99.90;;;;;;5091063;28;20208;-52
2022/09/03 06:46:32;;;;;;;2.85;1.98;;;18.60;99.90;;;;;;5091826;28;20228;-53
2022/09/03 06:49:00;;;;;;;3.63;1.77;;;18.80;99.90;;;;;;5078509;28;20204;-52
2022/09/03 06:51:30;;;;;;;2.28;2.08;;;19.10;99.90;;;;;;5078420;28;20689;-53
2022/09/03 06:54:01;;;;;;;1.77;1.67;;;19.30;99.90;;;;;;5091507;28;20360;-52
2022/09/03 06:56:29;;;;;;;3.67;1.70;;;19.60;99.90;;;;;;5087314;28;20224;-52
2022/09/03 06:59:05;;;;;;;3.20;1.52;;;19.90;99.90;;;;;;5091557;28;20583;-52
2022/09/03 07:01:39;;;;;;;2.08;1.88;;;20.00;99.90;;;;;;5090962;28;20620;-53
2022/09/03 07:04:11;;;;;;;2.17;1.73;;;20.00;99.90;;;;;;5091704;28;20265;-51
2022/09/03 07:06:41;;;;;;;2.15;1.80;;;19.90;99.90;;;;;;5090993;28;20232;-53
2022/09/03 07:09:11;;;;;;;3.08;1.70;;;19.70;99.90;;;;;;5091748;28;20212;-53
2022/09/03 07:11:45;;;;;;;4.75;1.83;;;19.80;99.90;;;;;;5088372;28;20204;-53
2022/09/03 07:14:15;;;;;;;1.50;1.40;;;20.20;99.90;;;;;;5091281;28;20254;-52
2022/09/03 07:16:44;;;;;;;1.70;1.58;;;20.50;99.90;;;;;;5091242;28;20228;-52
2022/09/03 07:19:13;;;;;;;3.30;1.52;;;20.70;99.90;;;;;;5090823;28;20219;-53
2022/09/03 07:21:42;;;;;;;1.63;1.50;;;21.00;99.90;;;;;;5090632;28;20234;-52
2022/09/03 07:24:16;;;;;;;1.63;1.52;;;21.20;99.50;;;;;;5090254;28;20340;-52
2022/09/03 07:26:45;;;;;;;1.60;1.50;;;21.20;98.10;;;;;;5090250;28;20275;-52
2022/09/03 07:29:14;;;;;;;3.63;1.70;;;21.30;97.90;;;;;;5089247;28;20204;-52
2022/09/03 07:31:44;;;;;;;1.58;1.40;;;21.50;98.30;;;;;;5091002;28;20239;-52
2022/09/03 07:34:15;;;;;;;2.83;1.50;;;21.60;97.70;;;;;;5090015;28;20598;-53
2022/09/03 07:36:45;;;;;;;1.67;1.55;;;21.60;97.30;;;;;;5090614;28;20220;-52
2022/09/03 07:39:16;;;;;;;2.67;1.70;;;21.60;97.30;;;;;;5085131;28;20280;-52
2022/09/03 07:41:46;;;;;;;2.40;1.58;;;21.30;97.30;;;;;;5092689;28;20213;-52
2022/09/03 07:44:18;;;;;;;3.40;1.90;;;21.10;96.90;;;;;;5091527;28;20817;-51
2022/09/03 07:46:49;;;;;;;2.38;1.60;;;21.00;97.60;;;;;;5088898;28;20612;-52
2022/09/03 07:49:20;;;;;;;3.47;1.70;;;21.50;97.90;;;;;;5090964;28;20204;-52
2022/09/03 07:51:53;;;;;;;1.88;1.35;;;21.90;97.20;;;;;;5094823;28;20262;-52
2022/09/03 07:54:22;;;;;;;2.22;1.30;;;22.20;97.00;;;;;;5092538;28;20248;-52
2022/09/03 07:56:51;;;;;;;2.97;1.90;;;22.40;96.60;;;;;;5088881;28;20681;-52
2022/09/03 07:59:20;;;;;;;3.20;1.70;;;22.40;96.10;;;;;;5091758;28;20204;-53
2022/09/03 08:01:51;;;;;;;1.63;1.50;;;22.20;96.20;;;;;;5094078;28;20677;-52
2022/09/03 08:04:20;;;;;;;3.25;1.65;;;22.00;96.00;;;;;;5087415;28;20213;-52
2022/09/03 08:06:48;;;;;;;1.95;1.40;;;21.90;95.90;;;;;;5089298;28;20285;-52
2022/09/03 08:09:16;;;;;;;3.17;1.92;;;21.80;96.10;;;;;;5090636;28;20208;-52
2022/09/03 08:11:44;;;;;;;3.58;1.80;;;21.80;96.30;;;;;;5090260;28;20208;-52
2022/09/03 08:14:14;;;;;;;3.20;1.80;;;21.80;96.10;;;;;;5090085;28;20216;-52
2022/09/03 08:16:44;;;;;;;2.95;1.90;;;21.40;96.00;;;;;;5090883;28;20229;-51
2022/09/03 08:19:16;;;;;;;1.73;1.45;;;21.20;96.50;;;;;;5089993;28;20215;-51
2022/09/03 08:21:45;;;;;;;2.88;1.70;;;20.90;96.50;;;;;;5081888;28;20623;-52
2022/09/03 08:24:16;;;;;;;2.47;1.45;;;20.80;96.70;;;;;;5090170;28;20212;-52
2022/09/03 08:26:44;;;;;;;3.42;1.80;;;20.70;97.00;;;;;;5084467;28;20264;-52
2022/09/03 08:29:18;;;;;;;4.38;1.70;;;20.60;97.00;;;;;;5089353;28;20970;-52
2022/09/03 08:31:46;;;;;;;2.58;1.65;;;20.60;97.30;;;;;;5087881;28;20208;-52
2022/09/03 08:34:16;;;;;;;2.33;1.60;;;20.70;97.00;;;;;;5084634;28;20743;-52
2022/09/03 08:36:45;;;;;;;4.53;1.63;;;20.60;97.10;;;;;;5085483;28;20232;-51
2022/09/03 08:39:14;;;;;;;3.22;1.75;;;20.60;97.20;;;;;;5089172;28;20579;-51
2022/09/03 08:42:17;;;;;;;2.55;1.95;;;20.70;97.30;;;;;;5089080;28;20265;-52
2022/09/03 08:44:49;;;;;;;4.68;1.52;;;20.60;96.80;;;;;;5086662;28;20266;-52
2022/09/03 08:47:21;;;;;;;2.30;1.80;;;20.70;97.20;;;;;;5087121;28;20228;-51
2022/09/03 08:49:56;;;;;;;2.65;1.70;;;20.80;97.40;;;;;;5085995;28;20204;-52
2022/09/03 08:52:31;;;;;;;3.70;1.88;;;20.90;96.80;;;;;;5080135;28;20294;-50
2022/09/03 08:55:16;;;;;;;4.80;1.95;;;21.00;96.80;;;;;;5085459;28;20717;-51
2022/09/03 08:57:47;;;;;;;2.90;1.67;;;21.10;96.80;;;;;;5088293;28;20249;-52
2022/09/03 09:00:16;;;;;;;3.90;1.83;;;21.30;96.70;;;;;;5088783;28;20631;-52
2022/09/03 09:02:57;;;;;;;3.25;1.80;;;21.40;96.80;;;;;;5088806;28;20676;-52
2022/09/03 09:05:38;;;;;;;3.58;1.45;;;21.40;96.60;;;;;;5085634;28;20311;-52
2022/09/03 09:08:11;;;;;;;1.85;1.58;;;21.60;96.40;;;;;;5078330;28;20221;-52
2022/09/03 09:10:44;;;;;;;4.30;1.70;;;21.90;96.40;;;;;;5081900;28;20208;-51
2022/09/03 09:13:22;;;;;;;2.83;1.77;;;22.10;96.30;;;;;;5087674;28;20223;-52
2022/09/03 09:16:02;;;;;;;4.00;1.73;;;22.40;95.90;;;;;;5081709;28;20242;-52
2022/09/03 09:18:43;;;;;;;1.70;1.60;;;22.40;95.70;;;;;;5087684;28;20231;-53
2022/09/03 09:21:16;;;;;;;1.80;1.27;;;22.40;95.40;;;;;;5088654;28;20208;-52
2022/09/03 09:23:49;;;;;;;1.88;1.70;;;22.60;95.80;;;;;;5088526;28;20203;-53
2022/09/03 09:26:20;;;;;;;4.10;1.70;;;22.70;94.60;;;;;;5087620;28;20274;-52
2022/09/03 09:28:56;;;;;;;4.93;1.60;;;22.90;95.20;;;;;;5087825;28;20228;-53
2022/09/03 09:31:25;;;;;;;2.60;1.70;;;23.10;95.10;;;;;;5089747;28;20211;-52
2022/09/03 09:33:54;;;;;;;1.88;1.48;;;23.20;94.50;;;;;;5081146;28;20214;-52
2022/09/03 09:36:24;;;;;;;2.25;1.80;;;23.30;94.40;;;;;;5083952;28;20655;-52
2022/09/03 09:38:53;;;;;;;1.98;1.65;;;23.10;94.40;;;;;;5086694;28;20626;-52
2022/09/03 09:41:23;;;;;;;3.92;1.70;;;23.00;94.50;;;;;;5087822;28;20204;-51
2022/09/03 09:44:01;;;;;;;2.60;1.52;;;23.20;94.30;;;;;;5087567;28;20207;-51
2022/09/03 09:46:34;;;;;;;2.03;1.60;;;23.00;94.70;;;;;;5087398;28;20223;-53
2022/09/03 09:49:03;;;;;;;2.55;1.58;;;23.00;94.30;;;;;;5083349;28;20660;-52
2022/09/03 09:51:32;;;;;;;3.47;1.50;;;22.90;94.00;;;;;;5087249;28;20200;-53
2022/09/03 09:54:02;;;;;;;3.35;1.83;;;22.80;94.20;;;;;;5088038;28;20284;-52
2022/09/03 09:56:30;;;;;;;2.47;1.40;;;22.70;94.30;;;;;;5087288;28;20228;-52
2022/09/03 09:59:06;;;;;;;2.25;1.50;;;22.60;94.60;;;;;;5091753;28;20199;-52
2022/09/03 10:01:38;;;;;;;1.67;1.42;;;22.60;94.40;;;;;;5094269;28;20219;-52
2022/09/03 10:04:11;;;;;;;6.13;1.90;;;22.70;94.50;;;;;;5089570;28;20275;-52
2022/09/03 10:06:56;;;;;;;3.53;1.50;;;22.60;94.80;;;;;;5084584;28;20224;-52
2022/09/03 10:09:26;;;;;;;2.50;1.80;;;22.60;95.10;;;;;;5086151;28;20223;-52
2022/09/03 10:12:14;;;;;;;4.50;1.55;;;22.60;94.80;;;;;;5088561;28;20207;-52
2022/09/03 10:14:47;;;;;;;2.83;1.80;;;22.70;94.80;;;;;;5087978;28;20860;-52
2022/09/03 10:17:22;;;;;;;3.92;1.73;;;22.70;94.60;;;;;;5087864;28;20212;-52
2022/09/03 10:20:29;;;;;;;3.03;1.58;;;22.90;94.70;;;;;;5087200;28;20552;-52
2022/09/03 10:23:03;;;;;;;2.45;1.52;;;23.10;94.80;;;;;;5087882;28;20208;-53
2022/09/03 10:25:40;;;;;;;2.92;1.75;;;23.20;94.90;;;;;;5087664;28;20273;-52
2022/09/03 10:28:10;;;;;;;4.43;1.85;;;23.20;94.00;;;;;;5087735;28;20716;-52
2022/09/03 10:30:58;;;;;;;5.82;1.92;;;23.00;94.10;;;;;;5086633;28;20250;-51
2022/09/03 10:33:33;;;;;;;3.42;1.70;;;23.00;94.30;;;;;;5085914;28;20683;-52
2022/09/03 10:36:12;;;;;;;1.77;1.50;;;22.90;94.00;;;;;;5085718;28;20276;-53
2022/09/03 10:38:43;;;;;;;3.95;1.70;;;22.90;94.60;;;;;;5084808;28;20238;-52
2022/09/03 10:41:27;;;;;;;3.25;1.40;;;22.90;94.40;;;;;;5085376;28;20289;-52
2022/09/03 10:44:13;;;;;;;2.25;1.70;;;22.70;94.20;;;;;;5076602;28;20811;-52
2022/09/03 10:46:52;;;;;;;4.35;1.95;;;22.60;94.10;;;;;;5085038;28;20288;-53
2022/09/03 10:49:30;;;;;;;1.90;1.73;;;22.60;94.30;;;;;;5081647;28;20294;-53
2022/09/03 10:52:07;;;;;;;4.10;1.63;;;22.50;94.50;;;;;;5087478;28;20255;-53
2022/09/03 10:54:55;;;;;;;5.20;1.92;;;22.60;94.80;;;;;;5086319;28;20261;-51
2022/09/03 10:57:35;;;;;;;2.83;1.60;;;22.60;94.30;;;;;;5086646;28;20200;-53
2022/09/03 11:00:08;;;;;;;1.90;1.70;;;22.60;94.30;;;;;;5082118;28;20212;-53
2022/09/03 11:03:09;;;;;;;3.45;1.70;;;22.60;94.40;;;;;;5093494;28;20216;-51
2022/09/03 11:05:41;;;;;;;1.50;1.40;;;22.60;94.30;;;;;;5088332;28;20236;-52
2022/09/03 11:08:17;;;;;;;2.60;1.80;;;22.60;93.80;;;;;;5089529;28;20220;-52
2022/09/03 11:10:51;;;;;;;3.10;1.48;;;22.60;93.60;;;;;;5090607;28;20235;-52
2022/09/03 11:13:24;;;;;;;2.63;1.65;;;22.50;93.50;;;;;;5087848;28;20253;-52
2022/09/03 11:15:58;;;;;;;3.40;1.83;;;22.50;93.30;;;;;;5086705;28;20224;-52
2022/09/03 11:18:32;;;;;;;2.50;1.70;;;22.50;93.30;;;;;;5087542;28;20287;-52
2022/09/03 11:21:04;;;;;;;2.05;1.60;;;22.50;93.30;;;;;;5090653;28;20717;-53
2022/09/03 11:23:43;;;;;;;2.97;1.40;;;22.50;93.00;;;;;;5090283;28;20823;-52
2022/09/03 11:26:16;;;;;;;2.25;1.98;;;22.50;93.10;;;;;;5089973;28;20228;-52
2022/09/03 11:28:54;;;;;;;3.35;1.65;;;22.50;93.70;;;;;;5089503;28;20258;-53
2022/09/03 11:31:31;;;;;;;2.45;1.83;;;22.40;93.40;;;;;;5090304;28;20204;-53
2022/09/03 11:34:05;;;;;;;2.42;1.42;;;22.50;93.30;;;;;;5092040;28;20216;-52
2022/09/03 11:36:37;;;;;;;2.60;1.50;;;22.50;93.10;;;;;;5093438;28;20266;-52
2022/09/03 11:39:20;;;;;;;2.67;1.60;;;22.40;93.40;;;;;;5091854;28;20680;-52
2022/09/03 11:42:05;;;;;;;4.15;1.80;;;22.30;93.40;;;;;;5092402;28;20677;-52
2022/09/03 11:44:39;;;;;;;4.50;1.80;;;22.30;93.40;;;;;;5092761;28;20286;-53
2022/09/03 11:47:23;;;;;;;3.55;1.70;;;22.20;93.50;;;;;;5090630;28;20230;-52
2022/09/03 11:49:53;;;;;;;3.65;1.65;;;22.20;93.70;;;;;;5095032;28;20219;-52
2022/09/03 11:52:28;;;;;;;2.55;1.50;;;22.30;93.80;;;;;;5090596;28;20285;-53
2022/09/03 11:54:56;;;;;;;2.60;1.40;;;22.20;93.90;;;;;;5092296;28;20227;-53
2022/09/03 11:57:29;;;;;;;2.70;1.55;;;22.20;93.70;;;;;;5090974;28;20204;-53
2022/09/03 12:00:11;;;;;;;3.22;1.70;;;22.10;93.60;;;;;;5089610;28;20207;-52
2022/09/03 12:02:45;;;;;;;2.15;1.58;;;22.10;94.00;;;;;;5088537;28;20204;-53
2022/09/03 12:05:21;;;;;;;2.95;1.70;;;22.20;94.30;;;;;;5087902;28;20220;-52
2022/09/03 12:08:12;;;;;;;3.63;1.60;;;22.40;94.40;;;;;;5090575;28;20285;-53
2022/09/03 12:10:50;;;;;;;1.70;1.60;;;22.50;94.30;;;;;;5085398;28;20262;-53
2022/09/03 12:13:30;;;;;;;2.30;1.50;;;22.50;94.30;;;;;;5080858;28;20246;-52
2022/09/03 12:16:29;;;;;;;2.10;1.23;;;22.70;94.80;;;;;;5089872;28;20228;-52
2022/09/03 12:19:04;;;;;;;4.00;1.75;;;22.80;94.50;;;;;;5089755;28;20281;-52
2022/09/03 12:21:39;;;;;;;1.80;1.60;;;22.70;93.90;;;;;;5089069;28;20283;-52
2022/09/03 12:24:12;;;;;;;4.38;2.03;;;22.80;94.10;;;;;;5089753;28;20622;-53
2022/09/03 12:26:42;;;;;;;3.92;1.60;;;22.70;94.10;;;;;;5088732;28;20221;-53
2022/09/03 12:29:24;;;;;;;2.13;1.60;;;22.60;94.50;;;;;;5087324;28;20228;-52
2022/09/03 12:31:56;;;;;;;1.65;1.55;;;22.60;94.00;;;;;;5087019;28;20208;-53
2022/09/03 12:34:26;;;;;;;4.63;1.80;;;22.60;94.10;;;;;;5088917;28;20614;-52
2022/09/03 12:36:54;;;;;;;2.80;1.63;;;22.80;94.10;;;;;;5088428;28;20308;-52
2022/09/03 12:39:24;;;;;;;3.92;1.70;;;22.90;94.00;;;;;;5088233;28;20212;-52
2022/09/03 12:42:19;;;;;;;1.85;1.67;;;22.80;93.90;;;;;;5087175;28;20284;-52
2022/09/03 12:44:48;;;;;;;2.15;1.52;;;22.90;94.10;;;;;;5088401;28;20216;-52
2022/09/03 12:47:18;;;;;;;4.07;1.48;;;22.80;93.80;;;;;;5091953;28;20262;-52
2022/09/03 12:50:07;;;;;;;3.30;1.83;;;22.80;93.70;;;;;;5088140;28;20220;-52
2022/09/03 12:52:39;;;;;;;3.55;1.75;;;22.70;93.60;;;;;;5085216;28;20212;-52
2022/09/03 12:55:18;;;;;;;1.63;1.40;;;22.70;93.50;;;;;;5088832;28;20236;-52
2022/09/03 12:57:49;;;;;;;4.25;1.52;;;22.70;93.40;;;;;;5090670;28;20726;-51
2022/09/03 13:00:28;;;;;;;3.13;1.90;;;22.80;93.40;;;;;;5087720;28;20676;-52
2022/09/03 13:03:02;;;;;;;2.05;1.85;;;22.80;93.10;;;;;;5084221;28;20258;-52
2022/09/03 13:05:34;;;;;;;4.13;1.60;;;22.90;93.40;;;;;;5085520;28;20728;-52
2022/09/03 13:08:07;;;;;;;2.65;1.55;;;23.00;93.30;;;;;;5085646;28;20265;-52
2022/09/03 13:10:40;;;;;;;2.55;1.60;;;23.10;93.50;;;;;;5087717;28;20286;-52
2022/09/03 13:13:22;;;;;;;2.85;1.60;;;23.20;92.70;;;;;;5087733;28;20576;-52
2022/09/03 13:16:39;;;;;;;2.88;1.70;;;23.20;92.60;;;;;;5088388;28;20232;-51
2022/09/03 13:19:14;;;;;;;2.42;1.45;;;23.20;92.20;;;;;;5005635;28;20207;-52
2022/09/03 13:21:48;;;;;;;3.58;1.40;;;23.20;92.30;;;;;;5079892;28;20212;-52